sensor_id;sensor_type;location;lat;lon;timestamp;P1;durP1;ratioP1;P2;durP2;ratioP2
45316;SDS011;31053;55.870;37.592;2024-02-23T00:02:42;44.80;;;19.10;;
45316;SDS011;31053;55.870;37.592;2024-02-23T00:05:50;43.95;;;19.27;;
45316;SDS011;31053;55.870;37.592;2024-02-23T00:08:55;42.60;;;18.15;;
45316;SDS011;31053;55.870;37.592;2024-02-23T00:12:01;43.25;;;18.73;;
45316;SDS011;31053;55.870;37.592;2024-02-23T00:15:06;53.60;;;21.73;;
45316;SDS011;31053;55.870;37.592;2024-02-23T00:18:11;44.72;;;19.30;;
45316;SDS011;31053;55.870;37.592;2024-02-23T00:21:19;43.50;;;18.92;;
45316;SDS011;31053;55.870;37.592;2024-02-23T00:24:24;48.20;;;21.08;;
45316;SDS011;31053;55.870;37.592;2024-02-23T00:27:30;47.35;;;19.48;;
45316;SDS011;31053;55.870;37.592;2024-02-23T00:30:42;42.38;;;17.98;;
45316;SDS011;31053;55.870;37.592;2024-02-23T00:33:47;51.55;;;21.63;;
45316;SDS011;31053;55.870;37.592;2024-02-23T00:36:54;48.80;;;19.13;;
45316;SDS011;31053;55.870;37.592;2024-02-23T00:39:59;45.42;;;19.02;;
45316;SDS011;31053;55.870;37.592;2024-02-23T00:43:04;49.08;;;21.25;;
45316;SDS011;31053;55.870;37.592;2024-02-23T00:46:12;37.50;;;15.43;;
45316;SDS011;31053;55.870;37.592;2024-02-23T00:49:19;50.00;;;20.20;;
45316;SDS011;31053;55.870;37.592;2024-02-23T00:52:24;50.90;;;20.20;;
45316;SDS011;31053;55.870;37.592;2024-02-23T00:58:37;45.10;;;19.25;;
45316;SDS011;31053;55.870;37.592;2024-02-23T01:01:48;44.55;;;18.73;;
45316;SDS011;31053;55.870;37.592;2024-02-23T01:04:54;44.65;;;18.85;;
45316;SDS011;31053;55.870;37.592;2024-02-23T01:08:01;44.30;;;18.48;;
45316;SDS011;31053;55.870;37.592;2024-02-23T01:11:06;41.45;;;17.05;;
45316;SDS011;31053;55.870;37.592;2024-02-23T01:14:11;46.40;;;17.90;;
45316;SDS011;31053;55.870;37.592;2024-02-23T01:17:18;48.17;;;19.00;;
45316;SDS011;31053;55.870;37.592;2024-02-23T01:20:28;43.10;;;17.85;;
45316;SDS011;31053;55.870;37.592;2024-02-23T01:23:35;49.30;;;19.60;;
45316;SDS011;31053;55.870;37.592;2024-02-23T01:26:40;53.05;;;20.00;;
45316;SDS011;31053;55.870;37.592;2024-02-23T01:29:48;41.97;;;18.00;;
45316;SDS011;31053;55.870;37.592;2024-02-23T01:33:00;55.53;;;19.33;;
45316;SDS011;31053;55.870;37.592;2024-02-23T01:36:07;43.65;;;17.38;;
45316;SDS011;31053;55.870;37.592;2024-02-23T01:39:15;43.90;;;18.65;;
45316;SDS011;31053;55.870;37.592;2024-02-23T01:42:22;42.63;;;17.67;;
45316;SDS011;31053;55.870;37.592;2024-02-23T01:45:29;46.70;;;19.38;;
45316;SDS011;31053;55.870;37.592;2024-02-23T01:48:35;45.78;;;16.15;;
45316;SDS011;31053;55.870;37.592;2024-02-23T01:51:41;43.88;;;19.45;;
45316;SDS011;31053;55.870;37.592;2024-02-23T01:54:45;40.38;;;17.17;;
45316;SDS011;31053;55.870;37.592;2024-02-23T01:57:51;45.38;;;19.75;;
45316;SDS011;31053;55.870;37.592;2024-02-23T02:00:56;48.70;;;18.88;;
45316;SDS011;31053;55.870;37.592;2024-02-23T02:04:03;50.50;;;21.38;;
45316;SDS011;31053;55.870;37.592;2024-02-23T02:07:08;40.30;;;17.15;;
45316;SDS011;31053;55.870;37.592;2024-02-23T02:10:14;41.92;;;18.45;;
45316;SDS011;31053;55.870;37.592;2024-02-23T02:13:20;39.95;;;17.42;;
45316;SDS011;31053;55.870;37.592;2024-02-23T02:16:25;37.72;;;14.32;;
45316;SDS011;31053;55.870;37.592;2024-02-23T02:19:30;50.90;;;18.80;;
45316;SDS011;31053;55.870;37.592;2024-02-23T02:22:36;48.45;;;19.63;;
45316;SDS011;31053;55.870;37.592;2024-02-23T02:25:41;33.45;;;14.63;;
45316;SDS011;31053;55.870;37.592;2024-02-23T02:28:46;53.60;;;19.75;;
45316;SDS011;31053;55.870;37.592;2024-02-23T02:31:51;49.80;;;19.52;;
45316;SDS011;31053;55.870;37.592;2024-02-23T02:34:59;41.88;;;17.70;;
45316;SDS011;31053;55.870;37.592;2024-02-23T02:38:04;34.05;;;15.63;;
45316;SDS011;31053;55.870;37.592;2024-02-23T02:41:09;37.00;;;14.88;;
45316;SDS011;31053;55.870;37.592;2024-02-23T02:44:14;46.20;;;16.88;;
45316;SDS011;31053;55.870;37.592;2024-02-23T02:47:19;70.00;;;24.13;;
45316;SDS011;31053;55.870;37.592;2024-02-23T02:50:31;40.95;;;16.95;;
45316;SDS011;31053;55.870;37.592;2024-02-23T02:53:35;44.63;;;19.92;;
45316;SDS011;31053;55.870;37.592;2024-02-23T02:56:44;43.03;;;18.50;;
45316;SDS011;31053;55.870;37.592;2024-02-23T02:59:52;37.90;;;16.83;;
45316;SDS011;31053;55.870;37.592;2024-02-23T03:02:57;43.95;;;18.30;;
45316;SDS011;31053;55.870;37.592;2024-02-23T03:06:03;51.83;;;19.93;;
45316;SDS011;31053;55.870;37.592;2024-02-23T03:09:10;45.25;;;17.83;;
45316;SDS011;31053;55.870;37.592;2024-02-23T03:12:18;38.00;;;15.18;;
45316;SDS011;31053;55.870;37.592;2024-02-23T03:15:34;42.85;;;17.13;;
45316;SDS011;31053;55.870;37.592;2024-02-23T03:18:41;58.08;;;23.58;;
45316;SDS011;31053;55.870;37.592;2024-02-23T03:21:49;52.05;;;19.13;;
45316;SDS011;31053;55.870;37.592;2024-02-23T03:24:53;51.47;;;19.63;;
45316;SDS011;31053;55.870;37.592;2024-02-23T03:27:58;52.03;;;20.00;;
45316;SDS011;31053;55.870;37.592;2024-02-23T03:31:09;46.55;;;18.25;;
45316;SDS011;31053;55.870;37.592;2024-02-23T03:34:17;50.97;;;20.85;;
45316;SDS011;31053;55.870;37.592;2024-02-23T03:37:25;48.55;;;19.38;;
45316;SDS011;31053;55.870;37.592;2024-02-23T03:40:29;52.00;;;18.85;;
45316;SDS011;31053;55.870;37.592;2024-02-23T03:43:34;49.97;;;20.23;;
45316;SDS011;31053;55.870;37.592;2024-02-23T03:46:45;62.70;;;22.88;;
45316;SDS011;31053;55.870;37.592;2024-02-23T03:49:53;56.15;;;20.35;;
45316;SDS011;31053;55.870;37.592;2024-02-23T03:53:01;60.28;;;21.65;;
45316;SDS011;31053;55.870;37.592;2024-02-23T03:56:05;59.55;;;20.23;;
45316;SDS011;31053;55.870;37.592;2024-02-23T03:59:11;54.17;;;20.05;;
45316;SDS011;31053;55.870;37.592;2024-02-23T04:02:18;50.97;;;21.52;;
45316;SDS011;31053;55.870;37.592;2024-02-23T04:05:23;58.13;;;20.58;;
45316;SDS011;31053;55.870;37.592;2024-02-23T04:08:31;42.28;;;17.40;;
45316;SDS011;31053;55.870;37.592;2024-02-23T04:11:36;45.88;;;17.35;;
45316;SDS011;31053;55.870;37.592;2024-02-23T04:14:48;53.33;;;20.35;;
45316;SDS011;31053;55.870;37.592;2024-02-23T04:17:58;54.97;;;20.52;;
45316;SDS011;31053;55.870;37.592;2024-02-23T04:21:05;48.35;;;17.50;;
45316;SDS011;31053;55.870;37.592;2024-02-23T04:24:13;54.58;;;19.90;;
45316;SDS011;31053;55.870;37.592;2024-02-23T04:27:19;50.63;;;20.80;;
45316;SDS011;31053;55.870;37.592;2024-02-23T04:30:24;58.80;;;21.90;;
45316;SDS011;31053;55.870;37.592;2024-02-23T04:33:29;47.85;;;20.27;;
45316;SDS011;31053;55.870;37.592;2024-02-23T04:36:33;57.08;;;19.02;;
45316;SDS011;31053;55.870;37.592;2024-02-23T04:39:43;53.47;;;20.67;;
45316;SDS011;31053;55.870;37.592;2024-02-23T04:42:48;48.45;;;18.85;;
45316;SDS011;31053;55.870;37.592;2024-02-23T04:45:53;54.20;;;20.60;;
45316;SDS011;31053;55.870;37.592;2024-02-23T04:48:58;50.10;;;19.38;;
45316;SDS011;31053;55.870;37.592;2024-02-23T04:52:09;51.35;;;20.15;;
45316;SDS011;31053;55.870;37.592;2024-02-23T04:55:14;59.42;;;21.13;;
45316;SDS011;31053;55.870;37.592;2024-02-23T04:58:19;56.30;;;22.48;;
45316;SDS011;31053;55.870;37.592;2024-02-23T05:01:25;60.40;;;21.65;;
45316;SDS011;31053;55.870;37.592;2024-02-23T05:04:38;57.20;;;21.73;;
45316;SDS011;31053;55.870;37.592;2024-02-23T05:07:43;60.95;;;22.92;;
45316;SDS011;31053;55.870;37.592;2024-02-23T05:10:48;56.35;;;19.40;;
45316;SDS011;31053;55.870;37.592;2024-02-23T05:13:54;59.40;;;19.80;;
45316;SDS011;31053;55.870;37.592;2024-02-23T05:16:59;50.30;;;18.03;;
45316;SDS011;31053;55.870;37.592;2024-02-23T05:20:05;55.72;;;18.45;;
45316;SDS011;31053;55.870;37.592;2024-02-23T05:23:14;55.45;;;19.20;;
45316;SDS011;31053;55.870;37.592;2024-02-23T05:26:22;61.60;;;21.80;;
45316;SDS011;31053;55.870;37.592;2024-02-23T05:29:28;56.85;;;20.50;;
45316;SDS011;31053;55.870;37.592;2024-02-23T05:32:34;44.95;;;20.33;;
45316;SDS011;31053;55.870;37.592;2024-02-23T05:35:39;64.40;;;21.48;;
45316;SDS011;31053;55.870;37.592;2024-02-23T05:38:44;49.28;;;17.20;;
45316;SDS011;31053;55.870;37.592;2024-02-23T05:41:52;54.67;;;20.58;;
45316;SDS011;31053;55.870;37.592;2024-02-23T05:44:57;52.80;;;19.38;;
45316;SDS011;31053;55.870;37.592;2024-02-23T05:48:02;58.20;;;19.20;;
45316;SDS011;31053;55.870;37.592;2024-02-23T05:51:07;59.00;;;19.65;;
45316;SDS011;31053;55.870;37.592;2024-02-23T05:54:12;55.90;;;19.85;;
45316;SDS011;31053;55.870;37.592;2024-02-23T05:57:17;45.97;;;17.50;;
45316;SDS011;31053;55.870;37.592;2024-02-23T06:00:21;52.08;;;18.30;;
45316;SDS011;31053;55.870;37.592;2024-02-23T06:03:26;49.33;;;16.30;;
45316;SDS011;31053;55.870;37.592;2024-02-23T06:06:30;57.72;;;19.30;;
45316;SDS011;31053;55.870;37.592;2024-02-23T06:09:35;48.85;;;18.02;;
45316;SDS011;31053;55.870;37.592;2024-02-23T06:12:40;55.05;;;21.27;;
45316;SDS011;31053;55.870;37.592;2024-02-23T06:15:44;52.13;;;18.15;;
45316;SDS011;31053;55.870;37.592;2024-02-23T06:18:49;48.85;;;17.08;;
45316;SDS011;31053;55.870;37.592;2024-02-23T06:21:54;52.45;;;19.27;;
45316;SDS011;31053;55.870;37.592;2024-02-23T06:24:59;52.63;;;19.02;;
45316;SDS011;31053;55.870;37.592;2024-02-23T06:28:04;48.20;;;18.30;;
45316;SDS011;31053;55.870;37.592;2024-02-23T06:31:09;48.03;;;17.90;;
45316;SDS011;31053;55.870;37.592;2024-02-23T06:34:13;51.10;;;19.58;;
45316;SDS011;31053;55.870;37.592;2024-02-23T06:37:17;44.95;;;18.73;;
45316;SDS011;31053;55.870;37.592;2024-02-23T06:40:22;47.97;;;18.52;;
45316;SDS011;31053;55.870;37.592;2024-02-23T06:43:26;45.33;;;16.85;;
45316;SDS011;31053;55.870;37.592;2024-02-23T06:46:31;56.28;;;20.90;;
45316;SDS011;31053;55.870;37.592;2024-02-23T06:49:36;59.50;;;21.00;;
45316;SDS011;31053;55.870;37.592;2024-02-23T06:52:41;56.58;;;19.75;;
45316;SDS011;31053;55.870;37.592;2024-02-23T06:55:46;46.42;;;17.90;;
45316;SDS011;31053;55.870;37.592;2024-02-23T06:58:50;48.03;;;17.45;;
45316;SDS011;31053;55.870;37.592;2024-02-23T07:01:55;66.70;;;21.48;;
45316;SDS011;31053;55.870;37.592;2024-02-23T07:05:00;41.60;;;16.02;;
45316;SDS011;31053;55.870;37.592;2024-02-23T07:08:07;53.58;;;20.65;;
45316;SDS011;31053;55.870;37.592;2024-02-23T07:11:12;48.00;;;17.05;;
45316;SDS011;31053;55.870;37.592;2024-02-23T07:14:17;51.60;;;20.02;;
45316;SDS011;31053;55.870;37.592;2024-02-23T07:17:24;46.40;;;17.40;;
45316;SDS011;31053;55.870;37.592;2024-02-23T07:20:28;55.08;;;20.10;;
45316;SDS011;31053;55.870;37.592;2024-02-23T07:23:33;40.30;;;17.27;;
45316;SDS011;31053;55.870;37.592;2024-02-23T07:26:37;53.50;;;18.48;;
45316;SDS011;31053;55.870;37.592;2024-02-23T07:29:42;64.20;;;19.02;;
45316;SDS011;31053;55.870;37.592;2024-02-23T07:32:46;50.58;;;19.05;;
45316;SDS011;31053;55.870;37.592;2024-02-23T07:35:51;59.45;;;19.88;;
45316;SDS011;31053;55.870;37.592;2024-02-23T07:38:55;44.47;;;17.48;;
45316;SDS011;31053;55.870;37.592;2024-02-23T07:42:00;40.15;;;18.92;;
45316;SDS011;31053;55.870;37.592;2024-02-23T07:45:06;43.63;;;16.77;;
45316;SDS011;31053;55.870;37.592;2024-02-23T07:48:13;54.25;;;19.02;;
45316;SDS011;31053;55.870;37.592;2024-02-23T07:51:18;53.10;;;20.55;;
45316;SDS011;31053;55.870;37.592;2024-02-23T07:54:23;39.95;;;17.63;;
45316;SDS011;31053;55.870;37.592;2024-02-23T07:57:28;51.22;;;19.58;;
45316;SDS011;31053;55.870;37.592;2024-02-23T08:00:33;48.63;;;17.73;;
45316;SDS011;31053;55.870;37.592;2024-02-23T08:03:39;44.40;;;18.60;;
45316;SDS011;31053;55.870;37.592;2024-02-23T08:06:44;52.28;;;18.27;;
45316;SDS011;31053;55.870;37.592;2024-02-23T08:09:49;41.38;;;16.83;;
45316;SDS011;31053;55.870;37.592;2024-02-23T08:12:54;34.85;;;13.77;;
45316;SDS011;31053;55.870;37.592;2024-02-23T08:15:59;51.08;;;19.10;;
45316;SDS011;31053;55.870;37.592;2024-02-23T08:19:03;46.33;;;17.55;;
45316;SDS011;31053;55.870;37.592;2024-02-23T08:22:08;51.55;;;17.52;;
45316;SDS011;31053;55.870;37.592;2024-02-23T08:25:13;40.00;;;15.88;;
45316;SDS011;31053;55.870;37.592;2024-02-23T08:28:18;60.45;;;20.65;;
45316;SDS011;31053;55.870;37.592;2024-02-23T08:31:22;54.95;;;17.85;;
45316;SDS011;31053;55.870;37.592;2024-02-23T08:34:27;40.63;;;14.93;;
45316;SDS011;31053;55.870;37.592;2024-02-23T08:37:32;45.88;;;17.05;;
45316;SDS011;31053;55.870;37.592;2024-02-23T08:40:37;64.95;;;17.88;;
45316;SDS011;31053;55.870;37.592;2024-02-23T08:43:42;36.93;;;14.70;;
45316;SDS011;31053;55.870;37.592;2024-02-23T08:46:47;40.83;;;15.88;;
45316;SDS011;31053;55.870;37.592;2024-02-23T08:49:52;51.53;;;17.83;;
45316;SDS011;31053;55.870;37.592;2024-02-23T08:52:56;50.17;;;18.40;;
45316;SDS011;31053;55.870;37.592;2024-02-23T08:56:01;41.90;;;15.13;;
45316;SDS011;31053;55.870;37.592;2024-02-23T08:59:06;43.67;;;17.60;;
45316;SDS011;31053;55.870;37.592;2024-02-23T09:02:11;49.03;;;18.42;;
45316;SDS011;31053;55.870;37.592;2024-02-23T09:05:16;40.40;;;15.80;;
45316;SDS011;31053;55.870;37.592;2024-02-23T09:08:20;55.55;;;19.30;;
45316;SDS011;31053;55.870;37.592;2024-02-23T09:11:25;44.85;;;17.08;;
45316;SDS011;31053;55.870;37.592;2024-02-23T09:14:30;41.05;;;16.23;;
45316;SDS011;31053;55.870;37.592;2024-02-23T09:17:35;54.38;;;18.42;;
45316;SDS011;31053;55.870;37.592;2024-02-23T09:20:40;39.53;;;15.20;;
45316;SDS011;31053;55.870;37.592;2024-02-23T09:23:44;47.33;;;17.88;;
45316;SDS011;31053;55.870;37.592;2024-02-23T09:26:49;37.45;;;16.80;;
45316;SDS011;31053;55.870;37.592;2024-02-23T09:29:53;34.35;;;14.45;;
45316;SDS011;31053;55.870;37.592;2024-02-23T09:32:58;46.58;;;16.25;;
45316;SDS011;31053;55.870;37.592;2024-02-23T09:36:03;39.72;;;16.23;;
45316;SDS011;31053;55.870;37.592;2024-02-23T09:39:08;36.63;;;13.68;;
45316;SDS011;31053;55.870;37.592;2024-02-23T09:42:12;41.70;;;17.33;;
45316;SDS011;31053;55.870;37.592;2024-02-23T09:45:17;33.60;;;12.90;;
45316;SDS011;31053;55.870;37.592;2024-02-23T09:48:22;37.92;;;14.68;;
45316;SDS011;31053;55.870;37.592;2024-02-23T09:51:27;38.28;;;14.45;;
45316;SDS011;31053;55.870;37.592;2024-02-23T09:54:33;35.75;;;14.88;;
45316;SDS011;31053;55.870;37.592;2024-02-23T09:57:37;50.00;;;17.10;;
45316;SDS011;31053;55.870;37.592;2024-02-23T10:00:42;40.05;;;14.23;;
45316;SDS011;31053;55.870;37.592;2024-02-23T10:03:46;47.30;;;17.17;;
45316;SDS011;31053;55.870;37.592;2024-02-23T10:06:52;42.80;;;15.65;;
45316;SDS011;31053;55.870;37.592;2024-02-23T10:09:58;31.70;;;13.77;;
45316;SDS011;31053;55.870;37.592;2024-02-23T10:13:03;42.10;;;17.58;;
45316;SDS011;31053;55.870;37.592;2024-02-23T10:16:11;41.38;;;15.65;;
45316;SDS011;31053;55.870;37.592;2024-02-23T10:19:16;43.42;;;16.88;;
45316;SDS011;31053;55.870;37.592;2024-02-23T10:22:21;34.13;;;14.45;;
45316;SDS011;31053;55.870;37.592;2024-02-23T10:25:29;43.63;;;17.17;;
45316;SDS011;31053;55.870;37.592;2024-02-23T10:28:34;43.58;;;16.98;;
45316;SDS011;31053;55.870;37.592;2024-02-23T10:31:39;39.85;;;15.93;;
45316;SDS011;31053;55.870;37.592;2024-02-23T10:34:47;41.33;;;16.50;;
45316;SDS011;31053;55.870;37.592;2024-02-23T10:37:52;43.55;;;15.75;;
45316;SDS011;31053;55.870;37.592;2024-02-23T10:40:58;44.30;;;16.88;;
45316;SDS011;31053;55.870;37.592;2024-02-23T10:44:03;38.17;;;15.60;;
45316;SDS011;31053;55.870;37.592;2024-02-23T10:47:09;47.37;;;16.33;;
45316;SDS011;31053;55.870;37.592;2024-02-23T10:50:14;49.10;;;16.75;;
45316;SDS011;31053;55.870;37.592;2024-02-23T10:53:19;39.17;;;15.65;;
45316;SDS011;31053;55.870;37.592;2024-02-23T10:56:24;32.55;;;14.65;;
45316;SDS011;31053;55.870;37.592;2024-02-23T10:59:32;38.17;;;15.18;;
45316;SDS011;31053;55.870;37.592;2024-02-23T11:02:44;34.75;;;14.68;;
45316;SDS011;31053;55.870;37.592;2024-02-23T11:05:51;42.95;;;17.23;;
45316;SDS011;31053;55.870;37.592;2024-02-23T11:09:07;47.83;;;17.90;;
45316;SDS011;31053;55.870;37.592;2024-02-23T11:12:21;43.13;;;17.00;;
45316;SDS011;31053;55.870;37.592;2024-02-23T11:15:27;40.13;;;15.57;;
45316;SDS011;31053;55.870;37.592;2024-02-23T11:18:34;45.65;;;15.57;;
45316;SDS011;31053;55.870;37.592;2024-02-23T11:21:39;39.17;;;16.30;;
45316;SDS011;31053;55.870;37.592;2024-02-23T11:24:44;28.70;;;12.98;;
45316;SDS011;31053;55.870;37.592;2024-02-23T11:27:49;41.03;;;15.27;;
45316;SDS011;31053;55.870;37.592;2024-02-23T11:30:55;46.88;;;16.73;;
45316;SDS011;31053;55.870;37.592;2024-02-23T11:34:00;41.38;;;15.02;;
45316;SDS011;31053;55.870;37.592;2024-02-23T11:37:11;48.13;;;17.02;;
45316;SDS011;31053;55.870;37.592;2024-02-23T11:40:19;38.40;;;16.02;;
45316;SDS011;31053;55.870;37.592;2024-02-23T11:43:23;39.70;;;16.27;;
45316;SDS011;31053;55.870;37.592;2024-02-23T11:46:28;39.42;;;14.75;;
45316;SDS011;31053;55.870;37.592;2024-02-23T11:49:36;42.42;;;16.15;;
45316;SDS011;31053;55.870;37.592;2024-02-23T11:52:41;49.40;;;17.73;;
45316;SDS011;31053;55.870;37.592;2024-02-23T11:55:49;45.42;;;16.85;;
45316;SDS011;31053;55.870;37.592;2024-02-23T11:58:56;42.03;;;16.25;;
45316;SDS011;31053;55.870;37.592;2024-02-23T12:02:02;61.58;;;16.60;;
45316;SDS011;31053;55.870;37.592;2024-02-23T12:05:07;42.97;;;17.60;;
45316;SDS011;31053;55.870;37.592;2024-02-23T12:08:13;38.47;;;15.93;;
45316;SDS011;31053;55.870;37.592;2024-02-23T12:11:18;41.55;;;17.02;;
45316;SDS011;31053;55.870;37.592;2024-02-23T12:14:24;42.55;;;16.67;;
45316;SDS011;31053;55.870;37.592;2024-02-23T12:17:29;50.83;;;16.55;;
45316;SDS011;31053;55.870;37.592;2024-02-23T12:20:34;50.45;;;17.55;;
45316;SDS011;31053;55.870;37.592;2024-02-23T12:23:43;44.05;;;15.48;;
45316;SDS011;31053;55.870;37.592;2024-02-23T12:26:53;51.05;;;17.00;;
45316;SDS011;31053;55.870;37.592;2024-02-23T12:29:58;51.42;;;19.40;;
45316;SDS011;31053;55.870;37.592;2024-02-23T12:33:06;49.70;;;15.73;;
45316;SDS011;31053;55.870;37.592;2024-02-23T12:36:14;47.00;;;17.70;;
45316;SDS011;31053;55.870;37.592;2024-02-23T12:39:19;51.67;;;18.60;;
45316;SDS011;31053;55.870;37.592;2024-02-23T12:42:25;50.80;;;17.60;;
45316;SDS011;31053;55.870;37.592;2024-02-23T12:45:30;53.78;;;19.60;;
45316;SDS011;31053;55.870;37.592;2024-02-23T12:48:34;50.70;;;15.70;;
45316;SDS011;31053;55.870;37.592;2024-02-23T12:51:40;46.95;;;17.52;;
45316;SDS011;31053;55.870;37.592;2024-02-23T12:54:44;67.72;;;20.83;;
45316;SDS011;31053;55.870;37.592;2024-02-23T12:57:49;50.28;;;17.67;;
45316;SDS011;31053;55.870;37.592;2024-02-23T13:00:56;67.35;;;19.77;;
45316;SDS011;31053;55.870;37.592;2024-02-23T13:04:01;52.15;;;18.33;;
45316;SDS011;31053;55.870;37.592;2024-02-23T13:07:06;52.63;;;17.73;;
45316;SDS011;31053;55.870;37.592;2024-02-23T13:10:11;54.00;;;18.45;;
45316;SDS011;31053;55.870;37.592;2024-02-23T13:13:15;50.15;;;19.20;;
45316;SDS011;31053;55.870;37.592;2024-02-23T13:16:21;46.10;;;16.48;;
45316;SDS011;31053;55.870;37.592;2024-02-23T13:19:26;52.25;;;19.00;;
45316;SDS011;31053;55.870;37.592;2024-02-23T13:22:31;49.47;;;17.67;;
45316;SDS011;31053;55.870;37.592;2024-02-23T13:25:36;49.13;;;16.15;;
45316;SDS011;31053;55.870;37.592;2024-02-23T13:28:44;57.95;;;19.92;;
45316;SDS011;31053;55.870;37.592;2024-02-23T13:31:49;51.97;;;16.95;;
45316;SDS011;31053;55.870;37.592;2024-02-23T13:38:32;71.28;;;21.55;;
45316;SDS011;31053;55.870;37.592;2024-02-23T13:41:42;57.90;;;19.92;;
45316;SDS011;31053;55.870;37.592;2024-02-23T13:44:46;62.85;;;21.38;;
45316;SDS011;31053;55.870;37.592;2024-02-23T13:47:59;67.80;;;20.85;;
45316;SDS011;31053;55.870;37.592;2024-02-23T13:51:33;61.70;;;22.10;;
45316;SDS011;31053;55.870;37.592;2024-02-23T13:54:39;71.55;;;21.48;;
45316;SDS011;31053;55.870;37.592;2024-02-23T13:57:47;66.10;;;21.58;;
45316;SDS011;31053;55.870;37.592;2024-02-23T14:00:53;61.08;;;21.85;;
45316;SDS011;31053;55.870;37.592;2024-02-23T14:03:58;69.47;;;24.90;;
45316;SDS011;31053;55.870;37.592;2024-02-23T14:07:03;79.38;;;23.73;;
45316;SDS011;31053;55.870;37.592;2024-02-23T14:10:08;69.95;;;24.35;;
45316;SDS011;31053;55.870;37.592;2024-02-23T14:13:13;64.70;;;21.70;;
45316;SDS011;31053;55.870;37.592;2024-02-23T14:16:18;64.43;;;22.17;;
45316;SDS011;31053;55.870;37.592;2024-02-23T14:19:23;80.65;;;25.95;;
45316;SDS011;31053;55.870;37.592;2024-02-23T14:22:28;54.10;;;18.08;;
45316;SDS011;31053;55.870;37.592;2024-02-23T14:25:33;68.55;;;23.30;;
45316;SDS011;31053;55.870;37.592;2024-02-23T14:28:38;76.65;;;26.60;;
45316;SDS011;31053;55.870;37.592;2024-02-23T14:31:43;66.05;;;24.73;;
45316;SDS011;31053;55.870;37.592;2024-02-23T14:34:48;79.78;;;25.67;;
45316;SDS011;31053;55.870;37.592;2024-02-23T14:37:54;67.97;;;24.27;;
45316;SDS011;31053;55.870;37.592;2024-02-23T14:40:59;60.95;;;20.63;;
45316;SDS011;31053;55.870;37.592;2024-02-23T14:44:03;60.67;;;21.58;;
45316;SDS011;31053;55.870;37.592;2024-02-23T14:47:08;70.90;;;25.65;;
45316;SDS011;31053;55.870;37.592;2024-02-23T14:50:12;70.95;;;25.67;;
45316;SDS011;31053;55.870;37.592;2024-02-23T14:53:17;69.88;;;24.35;;
45316;SDS011;31053;55.870;37.592;2024-02-23T14:56:22;68.68;;;23.90;;
45316;SDS011;31053;55.870;37.592;2024-02-23T14:59:27;68.78;;;25.73;;
45316;SDS011;31053;55.870;37.592;2024-02-23T15:02:32;79.82;;;27.17;;
45316;SDS011;31053;55.870;37.592;2024-02-23T15:05:36;79.97;;;23.30;;
45316;SDS011;31053;55.870;37.592;2024-02-23T15:08:42;73.40;;;23.92;;
45316;SDS011;31053;55.870;37.592;2024-02-23T15:11:47;87.07;;;29.50;;
45316;SDS011;31053;55.870;37.592;2024-02-23T15:14:51;67.40;;;22.50;;
45316;SDS011;31053;55.870;37.592;2024-02-23T15:17:56;85.57;;;29.00;;
45316;SDS011;31053;55.870;37.592;2024-02-23T15:21:01;76.07;;;27.33;;
45316;SDS011;31053;55.870;37.592;2024-02-23T15:24:06;86.97;;;28.67;;
45316;SDS011;31053;55.870;37.592;2024-02-23T15:27:11;75.38;;;30.02;;
45316;SDS011;31053;55.870;37.592;2024-02-23T15:30:15;65.05;;;24.17;;
45316;SDS011;31053;55.870;37.592;2024-02-23T15:33:22;70.05;;;27.08;;
45316;SDS011;31053;55.870;37.592;2024-02-23T15:36:27;75.32;;;29.50;;
45316;SDS011;31053;55.870;37.592;2024-02-23T15:39:35;80.60;;;28.13;;
45316;SDS011;31053;55.870;37.592;2024-02-23T15:42:40;74.95;;;29.58;;
45316;SDS011;31053;55.870;37.592;2024-02-23T15:45:45;65.40;;;25.35;;
45316;SDS011;31053;55.870;37.592;2024-02-23T15:48:50;78.88;;;29.23;;
45316;SDS011;31053;55.870;37.592;2024-02-23T15:51:55;91.03;;;31.83;;
45316;SDS011;31053;55.870;37.592;2024-02-23T15:55:01;51.60;;;20.58;;
45316;SDS011;31053;55.870;37.592;2024-02-23T15:58:11;42.67;;;18.45;;
45316;SDS011;31053;55.870;37.592;2024-02-23T16:01:20;76.72;;;27.90;;
45316;SDS011;31053;55.870;37.592;2024-02-23T16:04:25;76.78;;;26.42;;
45316;SDS011;31053;55.870;37.592;2024-02-23T16:07:31;74.80;;;28.70;;
45316;SDS011;31053;55.870;37.592;2024-02-23T16:10:39;72.30;;;28.77;;
45316;SDS011;31053;55.870;37.592;2024-02-23T16:13:44;52.47;;;22.70;;
45316;SDS011;31053;55.870;37.592;2024-02-23T16:16:52;81.50;;;27.70;;
45316;SDS011;31053;55.870;37.592;2024-02-23T16:19:59;74.22;;;28.63;;
45316;SDS011;31053;55.870;37.592;2024-02-23T16:23:25;69.83;;;27.30;;
45316;SDS011;31053;55.870;37.592;2024-02-23T16:26:31;71.45;;;26.40;;
45316;SDS011;31053;55.870;37.592;2024-02-23T16:29:41;59.08;;;23.02;;
45316;SDS011;31053;55.870;37.592;2024-02-23T16:32:46;63.50;;;25.83;;
45316;SDS011;31053;55.870;37.592;2024-02-23T16:35:53;61.35;;;23.70;;
45316;SDS011;31053;55.870;37.592;2024-02-23T16:39:09;62.83;;;24.98;;
45316;SDS011;31053;55.870;37.592;2024-02-23T16:42:15;74.40;;;29.10;;
45316;SDS011;31053;55.870;37.592;2024-02-23T16:45:20;83.65;;;32.53;;
45316;SDS011;31053;55.870;37.592;2024-02-23T16:48:27;61.60;;;25.13;;
45316;SDS011;31053;55.870;37.592;2024-02-23T16:51:35;77.80;;;29.67;;
45316;SDS011;31053;55.870;37.592;2024-02-23T16:57:46;79.30;;;27.98;;
45316;SDS011;31053;55.870;37.592;2024-02-23T17:00:51;78.88;;;28.88;;
45316;SDS011;31053;55.870;37.592;2024-02-23T17:04:01;65.03;;;25.45;;
45316;SDS011;31053;55.870;37.592;2024-02-23T17:07:06;76.53;;;28.40;;
45316;SDS011;31053;55.870;37.592;2024-02-23T17:10:11;78.45;;;28.85;;
45316;SDS011;31053;55.870;37.592;2024-02-23T17:13:16;74.88;;;25.45;;
45316;SDS011;31053;55.870;37.592;2024-02-23T17:16:20;69.15;;;27.15;;
45316;SDS011;31053;55.870;37.592;2024-02-23T17:19:36;69.53;;;25.88;;
45316;SDS011;31053;55.870;37.592;2024-02-23T17:22:44;69.20;;;24.55;;
45316;SDS011;31053;55.870;37.592;2024-02-23T17:30:25;59.33;;;22.52;;
45316;SDS011;31053;55.870;37.592;2024-02-23T17:34:30;55.75;;;22.08;;
45316;SDS011;31053;55.870;37.592;2024-02-23T17:37:41;53.90;;;20.65;;
45316;SDS011;31053;55.870;37.592;2024-02-23T17:40:49;58.47;;;21.17;;
45316;SDS011;31053;55.870;37.592;2024-02-23T17:44:02;53.78;;;21.67;;
45316;SDS011;31053;55.870;37.592;2024-02-23T17:47:13;55.88;;;20.75;;
45316;SDS011;31053;55.870;37.592;2024-02-23T17:50:18;47.00;;;18.52;;
45316;SDS011;31053;55.870;37.592;2024-02-23T17:53:26;46.80;;;19.20;;
45316;SDS011;31053;55.870;37.592;2024-02-23T17:56:37;50.53;;;18.60;;
45316;SDS011;31053;55.870;37.592;2024-02-23T17:59:42;46.78;;;18.30;;
45316;SDS011;31053;55.870;37.592;2024-02-23T18:02:47;38.90;;;16.58;;
45316;SDS011;31053;55.870;37.592;2024-02-23T18:05:52;45.47;;;18.27;;
45316;SDS011;31053;55.870;37.592;2024-02-23T18:09:07;46.83;;;18.58;;